Maimara, Argentina
Current Conditions -  °F | °C
As of 3:00 PM on Sunday 25 Jan 2015 (Local Time) from SASJ Reporting Station
Few Clouds Few Clouds  
Wind Chill: 33°   Ceiling: Unl
Heat Index: 33°   Visibility: 6mi
Dew Point: 16°   Wind: 6mph
Humidity: 36%   Direction: 50°NE
Pressure: 29.88"   Gusts: NA
Location:  23.62°S, 65.4°W
Report Text: SASJ 251800Z 05005KT 9999 FEW020 FEW035TCU 33/16 Q1012
Loading
Personal Weather Stations






























Interactive Weather Map New forecast layout! Learn more

10-Day Weather Forecast

Advertisements
Track Severe Weather on mobile